Time;durP1;ratioP1;P1;durP2;ratioP2;P2;SDS_P1;SDS_P2;PMS_P1;PMS_P2;Temp;Humidity;BMP_temperature;BMP_pressure;BME280_temperature;BME280_humidity;BME280_pressure;Samples;Min_cycle;Max_cycle;Signal;HPM_P1;HPM_P2
2021/01/05 00:00:20;;;;;;;5.00;3.05;;;3.30;99.90;;;;;;5072214;28;20093;-66
2021/01/05 00:02:47;;;;;;;5.20;2.80;;;3.30;99.90;;;;;;5079068;28;20044;-67
2021/01/05 00:05:14;;;;;;;5.18;2.70;;;3.30;99.90;;;;;;5070463;28;20052;-67
2021/01/05 00:07:42;;;;;;;4.55;2.30;;;3.30;99.90;;;;;;5074214;28;20053;-66
2021/01/05 00:10:09;;;;;;;4.72;2.50;;;3.30;99.90;;;;;;5069971;28;20404;-65
2021/01/05 00:12:36;;;;;;;4.75;2.35;;;3.30;99.90;;;;;;5081342;28;20348;-66
2021/01/05 00:15:05;;;;;;;4.97;2.53;;;3.30;99.90;;;;;;5072555;28;20052;-66
2021/01/05 00:17:31;;;;;;;4.47;2.53;;;3.30;99.90;;;;;;5075482;28;20089;-66
2021/01/05 00:19:57;;;;;;;4.00;2.35;;;3.30;99.90;;;;;;5072597;28;20047;-66
2021/01/05 00:22:24;;;;;;;4.35;2.67;;;3.30;99.90;;;;;;5075001;28;20135;-66
2021/01/05 00:24:51;;;;;;;4.57;3.00;;;3.30;99.90;;;;;;5074354;28;20052;-66
2021/01/05 00:27:17;;;;;;;4.53;2.22;;;3.30;99.90;;;;;;5073683;28;20449;-66
2021/01/05 00:29:43;;;;;;;4.88;2.80;;;3.30;99.90;;;;;;5088743;28;20498;-66
2021/01/05 00:32:15;;;;;;;4.10;2.42;;;3.30;99.90;;;;;;5079590;28;20056;-65
2021/01/05 00:34:43;;;;;;;3.65;2.58;;;3.30;99.90;;;;;;5076463;28;20067;-66
2021/01/05 00:37:10;;;;;;;3.97;2.50;;;3.30;99.90;;;;;;5071077;28;20452;-66
2021/01/05 00:39:36;;;;;;;4.70;2.58;;;3.30;99.90;;;;;;5067854;28;20086;-66
2021/01/05 00:42:04;;;;;;;5.25;2.95;;;3.30;99.90;;;;;;5076010;28;20060;-66
2021/01/05 00:44:30;;;;;;;5.05;3.03;;;3.30;99.90;;;;;;5068004;28;20092;-66
2021/01/05 00:46:57;;;;;;;4.43;2.53;;;3.30;99.90;;;;;;5075133;28;20056;-66
2021/01/05 00:49:24;;;;;;;6.00;3.15;;;3.20;99.90;;;;;;5073437;28;20054;-67
2021/01/05 00:51:51;;;;;;;4.88;3.00;;;3.20;99.90;;;;;;5076485;28;20052;-66
2021/01/05 00:54:17;;;;;;;4.70;2.90;;;3.20;99.90;;;;;;5076665;28;20052;-66
2021/01/05 00:56:58;;;;;;;4.82;2.88;;;3.20;99.90;;;;;;5070606;28;20147;-66
2021/01/05 00:59:24;;;;;;;4.07;2.58;;;3.20;99.90;;;;;;5069634;28;20420;-66
2021/01/05 01:01:50;;;;;;;4.88;2.75;;;3.20;99.90;;;;;;5083224;28;20052;-66
2021/01/05 01:04:17;;;;;;;3.83;2.45;;;3.30;99.90;;;;;;5075557;28;20060;-66
2021/01/05 01:06:43;;;;;;;4.28;2.30;;;3.30;99.90;;;;;;5071053;28;20682;-66
2021/01/05 01:09:10;;;;;;;4.78;2.60;;;3.30;99.90;;;;;;5068401;28;20358;-66
2021/01/05 01:11:37;;;;;;;4.75;2.70;;;3.30;99.90;;;;;;5073398;28;20458;-66
2021/01/05 01:14:05;;;;;;;4.50;2.70;;;3.30;99.90;;;;;;5071116;28;20059;-66
2021/01/05 01:16:31;;;;;;;4.72;3.00;;;3.20;99.90;;;;;;5062483;28;20044;-66
2021/01/05 01:18:58;;;;;;;4.95;2.88;;;3.20;99.90;;;;;;5067920;28;20249;-66
2021/01/05 01:21:24;;;;;;;5.53;3.20;;;3.20;99.90;;;;;;5067465;28;20048;-66
2021/01/05 01:23:51;;;;;;;5.50;3.00;;;3.20;99.90;;;;;;5069357;28;20044;-66
2021/01/05 01:26:17;;;;;;;5.72;2.85;;;3.20;99.90;;;;;;5067339;28;20084;-66
2021/01/05 01:28:44;;;;;;;4.15;2.70;;;3.20;99.90;;;;;;5068461;28;20056;-66
2021/01/05 01:31:10;;;;;;;4.63;2.80;;;3.20;99.90;;;;;;5073821;28;20045;-66
2021/01/05 01:33:38;;;;;;;4.70;2.78;;;3.20;99.90;;;;;;5071436;28;20052;-66
2021/01/05 01:36:04;;;;;;;5.82;3.40;;;3.20;99.90;;;;;;5068025;28;20060;-66
2021/01/05 01:38:31;;;;;;;4.40;2.50;;;3.20;99.90;;;;;;5068268;28;20146;-66
2021/01/05 01:40:57;;;;;;;5.25;2.97;;;3.20;99.90;;;;;;5067916;28;20098;-66
2021/01/05 01:43:25;;;;;;;5.05;3.08;;;3.20;99.90;;;;;;5068307;28;20071;-66
2021/01/05 01:45:52;;;;;;;4.97;2.72;;;3.20;99.90;;;;;;5067035;28;20488;-66
2021/01/05 01:48:19;;;;;;;5.32;3.20;;;3.20;99.90;;;;;;5068936;28;20048;-66
2021/01/05 01:50:45;;;;;;;5.47;3.08;;;3.20;99.90;;;;;;5065229;28;20447;-66
2021/01/05 01:53:21;;;;;;;5.10;2.95;;;3.20;99.90;;;;;;5068438;28;20060;-66
2021/01/05 01:55:53;;;;;;;4.90;2.75;;;3.20;99.90;;;;;;5066005;28;20051;-66
2021/01/05 01:58:32;;;;;;;4.88;2.72;;;3.30;99.90;;;;;;5068491;28;20056;-66
2021/01/05 02:01:28;;;;;;;4.85;3.00;;;3.20;99.90;;;;;;5090425;28;20166;-66
2021/01/05 02:03:58;;;;;;;4.75;2.60;;;3.20;99.90;;;;;;5067554;28;20094;-66
2021/01/05 02:06:59;;;;;;;4.68;3.00;;;3.20;99.90;;;;;;5083691;28;20080;-66
2021/01/05 02:09:29;;;;;;;6.18;3.05;;;3.20;99.90;;;;;;5081428;28;20056;-66
2021/01/05 02:11:58;;;;;;;;;;;3.20;99.90;;;;;;5101163;28;20055;-66
2021/01/05 02:14:52;;;;;;;4.32;2.53;;;3.20;99.90;;;;;;5069208;28;19935;-66
2021/01/05 02:17:56;;;;;;;5.25;3.10;;;3.20;99.90;;;;;;5063408;28;20472;-66
2021/01/05 02:20:46;;;;;;;4.30;2.50;;;3.20;99.90;;;;;;5086861;28;20044;-66
2021/01/05 02:23:33;;;;;;;5.78;3.00;;;3.20;99.90;;;;;;5068750;28;20419;-66
2021/01/05 02:26:04;;;;;;;4.20;2.67;;;3.10;99.90;;;;;;5065526;28;20456;-66
2021/01/05 02:28:41;;;;;;;4.78;2.63;;;3.20;99.90;;;;;;5068036;28;20049;-66
2021/01/05 02:31:28;;;;;;;5.53;3.13;;;3.10;99.90;;;;;;5067074;28;20106;-66
2021/01/05 02:33:58;;;;;;;4.60;2.75;;;3.10;99.90;;;;;;5085535;28;20456;-66
2021/01/05 02:36:44;;;;;;;4.53;2.47;;;3.10;99.90;;;;;;5070960;28;20380;-66
2021/01/05 02:39:32;;;;;;;5.53;2.80;;;3.20;99.90;;;;;;5090848;28;20113;-66
2021/01/05 02:42:20;;;;;;;4.80;2.65;;;3.20;99.90;;;;;;5071684;28;20052;-66
2021/01/05 02:45:19;;;;;;;6.03;3.05;;;3.10;99.90;;;;;;5070924;28;20129;-66
2021/01/05 02:48:05;;;;;;;5.50;2.45;;;3.10;99.90;;;;;;5085563;28;20073;-66
2021/01/05 02:51:06;;;;;;;5.05;2.33;;;3.10;99.90;;;;;;5089640;28;20052;-66
2021/01/05 02:53:38;;;;;;;4.65;2.20;;;3.10;99.90;;;;;;5108917;28;20109;-66
2021/01/05 02:56:42;;;;;;;4.40;2.20;;;3.20;99.90;;;;;;5104529;27;20056;-66
2021/01/05 02:59:30;;;;;;;5.97;2.88;;;3.20;99.90;;;;;;5072766;28;20422;-66
2021/01/05 03:02:19;;;;;;;4.65;2.65;;;3.20;99.90;;;;;;5080434;28;20056;-66
2021/01/05 03:04:45;;;;;;;5.07;2.90;;;3.20;99.90;;;;;;5072301;28;20509;-66
2021/01/05 03:07:15;;;;;;;5.20;2.80;;;3.20;99.90;;;;;;5078774;28;20129;-66
2021/01/05 03:09:41;;;;;;;5.55;2.50;;;3.20;99.90;;;;;;5073531;28;20079;-66
2021/01/05 03:12:34;;;;;;;5.00;2.70;;;3.20;99.90;;;;;;5076646;28;20487;-66
2021/01/05 03:15:45;;;;;;;4.22;2.53;;;3.20;99.90;;;;;;5091403;28;20048;-65
2021/01/05 03:18:37;;;;;;;5.10;2.45;;;3.20;99.90;;;;;;5065686;28;20051;-65
2021/01/05 03:21:09;;;;;;;4.50;2.53;;;3.20;99.90;;;;;;5076340;28;20199;-66
2021/01/05 03:23:35;;;;;;;4.75;2.50;;;3.20;99.90;;;;;;5075475;28;20166;-66
2021/01/05 03:26:06;;;;;;;6.00;2.88;;;3.20;99.90;;;;;;5073313;28;20058;-66
2021/01/05 03:28:33;;;;;;;4.43;2.47;;;3.20;99.90;;;;;;5075410;28;20153;-66
2021/01/05 03:31:12;;;;;;;4.20;2.42;;;3.20;99.90;;;;;;5070657;28;20495;-65
2021/01/05 03:33:41;;;;;;;3.53;2.20;;;3.20;99.90;;;;;;5075093;28;20055;-66
2021/01/05 03:36:10;;;;;;;4.68;2.60;;;3.20;99.90;;;;;;5072473;28;20048;-66
2021/01/05 03:38:38;;;;;;;3.97;2.25;;;3.20;99.90;;;;;;5074540;28;20721;-66
2021/01/05 03:41:05;;;;;;;4.47;2.50;;;3.30;99.90;;;;;;5075120;28;20342;-66
2021/01/05 03:43:31;;;;;;;4.70;2.75;;;3.30;99.90;;;;;;5073916;28;20048;-66
2021/01/05 03:45:59;;;;;;;4.22;2.53;;;3.30;99.90;;;;;;5071922;28;20052;-66
2021/01/05 03:48:25;;;;;;;4.55;2.45;;;3.30;99.90;;;;;;5074433;28;20479;-66
2021/01/05 03:50:52;;;;;;;4.70;2.40;;;3.30;99.90;;;;;;5081429;28;20491;-66
2021/01/05 03:53:19;;;;;;;4.57;2.55;;;3.20;99.90;;;;;;5074210;28;20079;-66
2021/01/05 03:55:45;;;;;;;4.75;2.85;;;3.30;99.90;;;;;;5073709;28;20052;-66
2021/01/05 03:58:12;;;;;;;5.50;2.80;;;3.30;99.90;;;;;;5073737;28;20091;-66
2021/01/05 04:00:38;;;;;;;4.32;2.70;;;3.20;99.90;;;;;;5078354;28;20048;-66
2021/01/05 04:03:05;;;;;;;5.65;2.95;;;3.20;99.90;;;;;;5075413;28;20048;-66
2021/01/05 04:05:32;;;;;;;4.80;2.45;;;3.20;99.90;;;;;;5073254;28;20052;-66
2021/01/05 04:07:58;;;;;;;5.30;2.95;;;3.20;99.90;;;;;;5074561;28;20055;-66
2021/01/05 04:10:24;;;;;;;5.60;2.88;;;3.20;99.90;;;;;;5076614;28;20376;-66
2021/01/05 04:12:51;;;;;;;6.05;3.00;;;3.20;99.90;;;;;;5076963;28;20552;-66
2021/01/05 04:15:26;;;;;;;5.38;2.83;;;3.20;99.90;;;;;;5073742;28;20558;-66
2021/01/05 04:17:54;;;;;;;4.97;2.50;;;3.20;99.90;;;;;;5072028;28;20073;-66
2021/01/05 04:20:23;;;;;;;4.35;2.50;;;3.20;99.90;;;;;;5071351;28;20055;-66
2021/01/05 04:22:50;;;;;;;5.25;2.83;;;3.20;99.90;;;;;;5077449;28;20048;-66
2021/01/05 04:25:19;;;;;;;6.03;3.10;;;3.20;99.90;;;;;;5072630;28;20561;-66
2021/01/05 04:27:48;;;;;;;5.43;3.05;;;3.20;99.90;;;;;;5101741;28;20094;-65
2021/01/05 04:30:31;;;;;;;5.75;2.55;;;3.20;99.90;;;;;;5066097;28;20500;-66
2021/01/05 04:33:03;;;;;;;5.93;2.97;;;3.20;99.90;;;;;;5070733;28;20052;-66
2021/01/05 04:35:30;;;;;;;5.90;3.40;;;3.20;99.90;;;;;;5050429;28;20382;-65
2021/01/05 04:37:57;;;;;;;5.90;3.00;;;3.20;99.90;;;;;;5053827;28;20060;-66
2021/01/05 04:40:24;;;;;;;5.43;3.08;;;3.20;99.90;;;;;;5045006;28;20053;-66
2021/01/05 04:43:07;;;;;;;4.90;2.97;;;3.20;99.90;;;;;;5080769;28;20105;-66
2021/01/05 04:45:48;;;;;;;6.85;3.00;;;3.20;99.90;;;;;;5048946;28;20155;-66
2021/01/05 04:48:27;;;;;;;5.55;2.63;;;3.20;99.90;;;;;;5053627;28;20044;-66
2021/01/05 04:50:59;;;;;;;4.95;2.50;;;3.20;99.90;;;;;;5070835;28;20207;-65
2021/01/05 04:54:09;;;;;;;4.50;2.53;;;3.20;99.90;;;;;;5053030;28;20051;-65
2021/01/05 04:56:47;;;;;;;5.88;3.65;;;3.20;99.90;;;;;;5051457;28;20052;-66
2021/01/05 04:59:16;;;;;;;6.72;3.00;;;3.20;99.90;;;;;;5070061;28;20064;-66
2021/01/05 05:01:43;;;;;;;6.10;2.92;;;3.20;99.90;;;;;;5056520;28;20102;-66
2021/01/05 05:04:27;;;;;;;6.75;3.80;;;3.20;99.90;;;;;;5049039;28;20074;-65
2021/01/05 05:06:53;;;;;;;7.18;3.83;;;3.20;99.90;;;;;;5051205;28;20045;-66
2021/01/05 05:09:45;;;;;;;5.13;2.90;;;3.20;99.90;;;;;;5069377;28;20049;-66
2021/01/05 05:12:37;;;;;;;6.95;3.25;;;3.20;99.90;;;;;;5070803;28;20517;-66
2021/01/05 05:15:34;;;;;;;6.65;3.22;;;3.20;99.90;;;;;;5049479;28;20045;-66
2021/01/05 05:18:10;;;;;;;6.70;3.60;;;3.20;99.90;;;;;;5078592;28;20082;-66
2021/01/05 05:20:58;;;;;;;8.70;4.18;;;3.20;99.90;;;;;;5052093;28;20556;-66
2021/01/05 05:23:53;;;;;;;8.53;4.10;;;3.20;99.90;;;;;;5053838;28;20077;-66
2021/01/05 05:26:47;;;;;;;8.90;3.95;;;3.20;99.90;;;;;;5069553;28;20665;-66
2021/01/05 05:29:37;;;;;;;8.25;3.85;;;3.20;99.90;;;;;;5059745;28;20048;-66
2021/01/05 05:32:32;;;;;;;6.57;3.45;;;3.20;99.90;;;;;;5053145;28;20558;-65
2021/01/05 05:35:11;;;;;;;6.75;3.60;;;3.20;99.90;;;;;;5069430;28;20056;-66
2021/01/05 05:37:45;;;;;;;;;;;3.20;99.90;;;;;;5094309;28;20048;-66
2021/01/05 05:40:40;;;;;;;6.55;3.15;;;3.20;99.90;;;;;;5065805;28;19971;-66
2021/01/05 05:43:16;;;;;;;6.25;3.00;;;3.20;99.90;;;;;;5072526;28;20445;-66
2021/01/05 05:45:44;;;;;;;6.30;3.50;;;3.20;99.90;;;;;;5087478;28;20078;-66
2021/01/05 05:48:42;;;;;;;6.45;3.30;;;3.20;99.90;;;;;;5071029;28;20056;-66
2021/01/05 05:51:18;;;;;;;7.10;3.53;;;3.20;99.90;;;;;;5081511;28;20099;-66
2021/01/05 05:53:47;;;;;;;6.97;3.58;;;3.20;99.90;;;;;;5068016;28;20052;-65
2021/01/05 05:56:16;;;;;;;7.05;4.13;;;3.20;99.90;;;;;;5073673;28;20071;-65
2021/01/05 05:58:52;;;;;;;6.85;3.70;;;3.20;99.90;;;;;;5071834;28;20091;-66
2021/01/05 06:01:25;;;;;;;7.68;3.85;;;3.20;99.90;;;;;;5077018;28;20043;-66
2021/01/05 06:03:56;;;;;;;7.38;3.42;;;3.20;99.90;;;;;;5074138;28;20047;-66
2021/01/05 06:06:23;;;;;;;8.48;3.95;;;3.20;99.90;;;;;;5075530;28;20048;-66
2021/01/05 06:08:49;;;;;;;6.35;3.72;;;3.20;99.90;;;;;;5072748;28;20044;-66
2021/01/05 06:11:16;;;;;;;8.55;4.63;;;3.20;99.90;;;;;;5067405;28;20438;-66
2021/01/05 06:13:42;;;;;;;9.48;4.30;;;3.20;99.90;;;;;;5061053;28;20108;-66
2021/01/05 06:16:09;;;;;;;7.90;4.13;;;3.20;99.90;;;;;;5063998;28;20044;-66
2021/01/05 06:18:36;;;;;;;9.45;4.95;;;3.20;99.90;;;;;;5063976;28;20060;-66
2021/01/05 06:21:03;;;;;;;6.63;3.72;;;3.20;99.90;;;;;;5069479;28;20071;-66
2021/01/05 06:23:29;;;;;;;7.63;3.97;;;3.20;99.90;;;;;;5069893;28;20092;-66
2021/01/05 06:25:56;;;;;;;8.57;4.20;;;3.20;99.90;;;;;;5086402;28;21001;-66
2021/01/05 06:28:22;;;;;;;8.27;4.07;;;3.30;99.90;;;;;;5069105;28;20400;-66
2021/01/05 06:30:49;;;;;;;8.07;3.90;;;3.30;99.90;;;;;;5072458;28;20093;-66
2021/01/05 06:33:15;;;;;;;8.65;4.47;;;3.30;99.90;;;;;;5077520;28;20491;-66
2021/01/05 06:35:41;;;;;;;7.25;3.97;;;3.30;99.90;;;;;;5069110;28;20052;-66
2021/01/05 06:38:09;;;;;;;9.25;4.47;;;3.30;99.90;;;;;;5067179;28;20059;-66
2021/01/05 06:40:44;;;;;;;7.82;3.90;;;3.30;99.90;;;;;;5065260;28;20075;-65
2021/01/05 06:43:21;;;;;;;8.77;3.97;;;3.30;99.90;;;;;;5064767;28;20389;-66
2021/01/05 06:45:48;;;;;;;8.45;4.57;;;3.30;99.90;;;;;;5066349;28;20040;-66
2021/01/05 06:48:15;;;;;;;7.47;4.32;;;3.30;99.90;;;;;;5070418;28;20442;-66
2021/01/05 06:50:41;;;;;;;7.65;3.63;;;3.30;99.90;;;;;;5066779;28;20064;-66
2021/01/05 06:53:08;;;;;;;9.40;4.60;;;3.30;99.90;;;;;;5059698;28;20064;-66
2021/01/05 06:55:35;;;;;;;7.97;4.10;;;3.40;99.90;;;;;;5062682;28;20098;-66
2021/01/05 06:58:01;;;;;;;7.63;3.95;;;3.40;99.90;;;;;;5062614;28;20053;-65
2021/01/05 07:00:31;;;;;;;7.90;4.18;;;3.40;99.90;;;;;;5057560;28;20056;-66
2021/01/05 07:02:57;;;;;;;;;;;3.30;99.90;;;;;;5061036;28;20071;-66
2021/01/05 07:05:24;;;;;;;5.55;3.05;;;3.30;99.90;;;;;;5062079;28;19978;-66
2021/01/05 07:07:51;;;;;;;8.68;4.03;;;3.30;99.90;;;;;;5059016;28;20135;-65
2021/01/05 07:10:19;;;;;;;8.30;4.22;;;3.40;99.90;;;;;;5060023;28;20094;-66
2021/01/05 07:12:46;;;;;;;7.90;3.83;;;3.30;99.90;;;;;;5062542;28;20126;-65
2021/01/05 07:15:16;;;;;;;9.43;3.97;;;3.30;99.90;;;;;;5067362;28;20056;-66
2021/01/05 07:17:42;;;;;;;9.18;4.60;;;3.30;99.90;;;;;;5064946;28;20118;-66
2021/01/05 07:20:10;;;;;;;9.18;4.75;;;3.30;99.90;;;;;;5063065;28;20060;-65
2021/01/05 07:22:37;;;;;;;6.40;3.75;;;3.30;99.90;;;;;;5065811;28;20053;-65
2021/01/05 07:25:05;;;;;;;8.30;4.22;;;3.30;99.90;;;;;;5082853;28;20056;-66
2021/01/05 07:27:31;;;;;;;7.50;3.78;;;3.30;99.90;;;;;;5070077;28;20048;-66
2021/01/05 07:29:58;;;;;;;9.15;4.05;;;3.30;99.90;;;;;;5066717;28;20056;-66
2021/01/05 07:32:26;;;;;;;8.82;4.10;;;3.30;99.90;;;;;;5066230;28;20515;-65
2021/01/05 07:34:53;;;;;;;9.73;3.83;;;3.30;99.90;;;;;;5068102;28;20048;-65
2021/01/05 07:37:24;;;;;;;6.60;3.60;;;3.30;99.90;;;;;;5103247;27;20052;-65
2021/01/05 07:39:50;;;;;;;7.85;3.70;;;3.30;99.90;;;;;;5068154;28;20054;-65
2021/01/05 07:42:21;;;;;;;8.90;4.00;;;3.30;99.90;;;;;;5070699;28;20093;-65
2021/01/05 07:44:50;;;;;;;7.63;4.35;;;3.30;99.90;;;;;;5085060;28;20047;-65
2021/01/05 07:47:18;;;;;;;7.55;3.65;;;3.30;99.90;;;;;;5056093;28;20108;-66
2021/01/05 07:49:45;;;;;;;6.40;3.58;;;3.30;99.90;;;;;;5061172;28;20051;-66
2021/01/05 07:52:37;;;;;;;8.55;4.57;;;3.30;99.90;;;;;;5082841;28;20063;-66
2021/01/05 07:55:10;;;;;;;6.68;3.55;;;3.30;99.90;;;;;;5065978;28;20040;-66
2021/01/05 07:57:36;;;;;;;9.02;4.20;;;3.30;99.90;;;;;;5067207;28;20052;-66
2021/01/05 08:00:05;;;;;;;7.53;3.78;;;3.30;99.90;;;;;;5062527;28;20379;-66
2021/01/05 08:02:32;;;;;;;7.53;3.95;;;3.30;99.90;;;;;;5059899;28;20057;-65
2021/01/05 08:04:59;;;;;;;9.27;4.43;;;3.40;99.90;;;;;;5060027;28;20067;-65
2021/01/05 08:07:26;;;;;;;8.65;4.50;;;3.40;99.90;;;;;;5060294;28;20165;-65
2021/01/05 08:09:53;;;;;;;8.15;4.05;;;3.40;99.90;;;;;;5081183;28;20145;-66
2021/01/05 08:12:35;;;;;;;10.75;5.03;;;3.40;99.90;;;;;;5064446;28;20040;-65
2021/01/05 08:15:19;;;;;;;9.55;4.85;;;3.40;99.90;;;;;;5084620;28;20055;-66
2021/01/05 08:17:46;;;;;;;9.90;4.78;;;3.40;99.90;;;;;;5082256;28;20064;-65
2021/01/05 08:20:15;;;;;;;8.85;4.90;;;3.40;99.90;;;;;;5082472;28;20206;-66
2021/01/05 08:22:42;;;;;;;8.73;4.50;;;3.40;99.90;;;;;;5067362;28;20114;-66
2021/01/05 08:25:09;;;;;;;9.20;4.88;;;3.40;99.90;;;;;;5082296;28;20055;-66
2021/01/05 08:27:47;;;;;;;10.50;5.32;;;3.40;99.90;;;;;;5068598;28;20055;-66
2021/01/05 08:30:20;;;;;;;8.87;4.77;;;3.50;99.90;;;;;;5080957;28;20072;-66
2021/01/05 08:32:47;;;;;;;10.70;5.00;;;3.50;99.90;;;;;;5066214;28;20100;-66
2021/01/05 08:35:16;;;;;;;8.15;4.20;;;3.50;99.90;;;;;;5087071;27;20060;-66
2021/01/05 08:37:43;;;;;;;8.68;4.28;;;3.50;99.90;;;;;;5054092;28;20060;-66
2021/01/05 08:40:16;;;;;;;8.52;4.88;;;3.50;99.90;;;;;;5051839;28;20072;-66
2021/01/05 08:42:42;;;;;;;11.50;5.35;;;3.50;99.90;;;;;;5058637;28;20049;-66
2021/01/05 08:45:12;;;;;;;10.40;5.35;;;3.50;99.90;;;;;;5054205;28;20102;-66
2021/01/05 08:47:43;;;;;;;8.95;5.47;;;3.50;99.90;;;;;;5085824;28;20049;-66
2021/01/05 08:50:19;;;;;;;11.60;6.35;;;3.50;99.90;;;;;;5050331;28;20085;-66
2021/01/05 08:52:46;;;;;;;10.35;5.10;;;3.50;99.90;;;;;;5050658;28;20044;-66
2021/01/05 08:55:14;;;;;;;9.13;5.00;;;3.60;99.90;;;;;;5053170;28;20503;-66
2021/01/05 08:57:40;;;;;;;12.20;5.10;;;3.60;99.90;;;;;;5050525;28;20052;-67
2021/01/05 20:32:04;;;;;;;12.20;5.80;;;4.50;99.90;;;;;;4940947;28;20078;-68
2021/01/05 20:34:30;;;;;;;11.05;6.03;;;4.50;99.90;;;;;;4913670;29;20060;-67
2021/01/05 20:36:56;;;;;;;9.57;5.05;;;4.40;99.90;;;;;;4918858;29;20059;-67
2021/01/05 20:39:22;;;;;;;8.73;5.18;;;4.50;99.90;;;;;;4925562;29;20071;-69
2021/01/05 20:41:49;;;;;;;10.40;5.57;;;4.50;99.90;;;;;;4920968;29;20052;-67
2021/01/05 20:44:16;;;;;;;9.90;5.25;;;4.50;99.90;;;;;;4921819;29;20391;-67
2021/01/05 20:46:43;;;;;;;10.27;5.30;;;4.50;99.90;;;;;;4926253;29;20050;-67
2021/01/05 20:49:11;;;;;;;11.35;5.90;;;4.50;99.90;;;;;;4924399;29;20139;-67
2021/01/05 20:51:41;;;;;;;11.15;5.30;;;4.50;99.90;;;;;;4927445;29;20043;-67
2021/01/05 20:54:08;;;;;;;11.73;6.03;;;4.50;99.90;;;;;;4926858;29;20048;-67
2021/01/05 20:56:35;;;;;;;11.70;6.00;;;4.50;99.90;;;;;;4925178;29;20091;-68
2021/01/05 20:59:01;;;;;;;11.18;6.22;;;4.50;99.90;;;;;;4920486;29;20066;-67
2021/01/05 21:01:37;;;;;;;12.55;6.05;;;4.40;99.90;;;;;;4920907;29;20071;-66
2021/01/05 21:04:04;;;;;;;10.68;5.93;;;4.40;99.90;;;;;;4919291;29;20135;-67
2021/01/05 21:06:31;;;;;;;10.60;6.00;;;4.40;99.90;;;;;;4923804;29;20063;-66
2021/01/05 21:08:57;;;;;;;10.82;5.40;;;4.40;99.90;;;;;;4929833;29;20151;-67
2021/01/05 21:11:30;;;;;;;11.07;5.80;;;4.40;99.90;;;;;;4925702;29;20059;-67
2021/01/05 21:13:56;;;;;;;13.38;6.28;;;4.40;99.90;;;;;;4916884;29;20087;-68
2021/01/05 21:16:25;;;;;;;11.50;5.35;;;4.40;99.90;;;;;;4921682;29;20052;-67
2021/01/05 21:18:52;;;;;;;12.05;5.72;;;4.40;99.90;;;;;;4926566;29;20051;-68
2021/01/05 21:21:27;;;;;;;11.88;5.97;;;4.40;99.90;;;;;;4924408;29;20151;-67
2021/01/05 21:23:57;;;;;;;11.63;5.10;;;4.40;99.90;;;;;;4928833;29;20051;-68
2021/01/05 21:26:29;;;;;;;12.00;5.47;;;4.40;99.90;;;;;;4925758;29;20043;-66
2021/01/05 21:28:59;;;;;;;12.90;6.30;;;4.40;99.90;;;;;;4924504;29;20138;-67
2021/01/05 21:31:30;;;;;;;11.75;5.80;;;4.40;99.90;;;;;;4930045;29;20059;-70
2021/01/05 21:33:58;;;;;;;12.20;5.70;;;4.40;99.90;;;;;;4930219;29;20168;-66
2021/01/05 21:36:26;;;;;;;15.70;6.20;;;4.40;99.90;;;;;;4930689;29;20062;-67
2021/01/05 21:38:53;;;;;;;10.45;5.68;;;4.40;99.90;;;;;;4929832;29;20463;-68
2021/01/05 21:41:22;;;;;;;10.80;5.43;;;4.40;99.90;;;;;;4920849;29;20058;-67
2021/01/05 21:43:54;;;;;;;11.55;5.53;;;4.40;99.90;;;;;;4927390;29;20476;-67
2021/01/05 21:46:21;;;;;;;14.20;5.68;;;4.40;99.90;;;;;;4928427;29;20131;-67
2021/01/05 21:48:48;;;;;;;12.73;6.00;;;4.40;99.90;;;;;;4930507;29;20459;-68
2021/01/05 21:51:14;;;;;;;11.02;5.47;;;4.50;99.90;;;;;;4922205;29;20052;-67
2021/01/05 21:53:40;;;;;;;11.85;5.32;;;4.50;99.90;;;;;;4925752;29;20073;-67
2021/01/05 21:56:07;;;;;;;10.85;5.78;;;4.50;99.90;;;;;;4947288;29;20052;-67
2021/01/05 21:58:33;;;;;;;11.63;5.45;;;4.40;99.90;;;;;;4930412;29;20056;-67
2021/01/05 22:01:00;;;;;;;10.60;5.15;;;4.50;99.90;;;;;;4922570;29;20090;-67
2021/01/05 22:03:29;;;;;;;11.35;5.20;;;4.50;99.90;;;;;;4923053;29;20051;-66
2021/01/05 22:05:55;;;;;;;;;;;4.50;99.90;;;;;;4922873;29;20079;-67
2021/01/05 22:08:21;;;;;;;11.38;4.90;;;4.50;99.90;;;;;;4925831;29;19929;-68
2021/01/05 22:10:48;;;;;;;10.95;5.30;;;4.50;99.90;;;;;;4917948;29;20219;-67
2021/01/05 22:13:20;;;;;;;10.05;5.32;;;4.50;99.90;;;;;;4924130;29;20119;-69
2021/01/05 22:15:46;;;;;;;10.48;4.97;;;4.50;99.90;;;;;;4922576;29;20062;-67
2021/01/05 22:18:12;;;;;;;10.82;4.85;;;4.50;99.90;;;;;;4921903;29;20052;-67
2021/01/05 22:20:39;;;;;;;11.27;5.40;;;4.50;99.90;;;;;;4925518;29;20050;-68
2021/01/05 22:23:13;;;;;;;9.40;4.93;;;4.50;99.90;;;;;;4925342;29;20055;-67
2021/01/05 22:25:41;;;;;;;10.30;5.30;;;4.50;99.90;;;;;;4924293;29;20121;-67
2021/01/05 22:28:08;;;;;;;12.40;5.30;;;4.50;99.90;;;;;;4922581;29;20055;-68
2021/01/05 22:30:34;;;;;;;9.75;4.93;;;4.50;99.90;;;;;;4920063;29;20343;-68
2021/01/05 22:33:02;;;;;;;10.27;5.22;;;4.50;99.90;;;;;;4918626;29;20052;-66
2021/01/05 22:35:48;;;;;;;11.15;5.47;;;4.60;99.90;;;;;;4922909;29;20125;-67
2021/01/05 22:38:17;;;;;;;9.73;4.80;;;4.60;99.90;;;;;;4919714;29;20086;-67
2021/01/05 22:40:48;;;;;;;11.00;5.15;;;4.60;99.90;;;;;;4922401;29;20097;-67
2021/01/05 22:43:18;;;;;;;11.45;5.60;;;4.60;99.90;;;;;;4919331;29;20048;-67
2021/01/05 22:45:45;;;;;;;10.20;5.57;;;4.60;99.90;;;;;;4923396;29;20084;-69
2021/01/05 22:48:12;;;;;;;9.15;4.90;;;4.50;99.90;;;;;;4924797;29;20050;-68
2021/01/05 22:50:38;;;;;;;11.80;5.90;;;4.50;99.90;;;;;;4918248;29;20059;-67
2021/01/05 22:53:09;;;;;;;10.77;5.35;;;4.50;99.90;;;;;;4922933;29;20060;-67
2021/01/05 22:55:36;;;;;;;12.30;5.97;;;4.50;99.90;;;;;;4923106;29;20070;-67
2021/01/05 22:58:06;;;;;;;10.80;5.38;;;4.50;99.90;;;;;;4930583;29;20127;-67
2021/01/05 23:01:01;;;;;;;13.50;6.20;;;4.50;99.90;;;;;;4924566;29;20127;-67
2021/01/05 23:03:28;;;;;;;10.90;5.85;;;4.50;99.90;;;;;;4928363;29;20107;-67
2021/01/05 23:05:55;;;;;;;11.05;5.78;;;4.50;99.90;;;;;;4928163;29;20051;-67
2021/01/05 23:08:25;;;;;;;11.40;5.63;;;4.40;99.90;;;;;;4934464;29;20194;-67
2021/01/05 23:10:53;;;;;;;11.25;5.35;;;4.40;99.90;;;;;;4923788;29;20048;-67
2021/01/05 23:13:25;;;;;;;9.65;5.63;;;4.40;99.90;;;;;;4927401;29;20132;-69
2021/01/05 23:15:51;;;;;;;;;;;4.50;99.90;;;;;;4924510;29;20075;-67
2021/01/05 23:18:22;;;;;;;8.90;4.40;;;4.40;99.90;;;;;;4930896;29;19923;-68
2021/01/05 23:20:51;;;;;;;10.82;5.15;;;4.50;99.90;;;;;;4921342;29;20075;-67
2021/01/05 23:23:23;;;;;;;9.43;5.00;;;4.50;99.90;;;;;;4923552;29;20577;-67
2021/01/05 23:25:49;;;;;;;11.02;5.63;;;4.50;99.90;;;;;;4926982;29;20187;-67
2021/01/05 23:28:16;;;;;;;10.65;5.68;;;4.40;99.90;;;;;;4928697;29;20080;-69
2021/01/05 23:30:43;;;;;;;13.85;6.18;;;4.40;99.90;;;;;;4923791;29;20044;-67
2021/01/05 23:33:10;;;;;;;10.40;5.60;;;4.40;99.90;;;;;;4923468;29;20079;-67
2021/01/05 23:35:42;;;;;;;11.05;5.63;;;4.40;99.90;;;;;;4921984;29;20135;-68
2021/01/05 23:38:19;;;;;;;11.45;5.25;;;4.40;99.90;;;;;;4919589;29;20100;-67
2021/01/05 23:40:48;;;;;;;12.63;5.35;;;4.40;99.90;;;;;;4921922;29;20048;-68
2021/01/05 23:43:36;;;;;;;11.32;5.68;;;4.40;99.90;;;;;;4932294;29;20132;-67
2021/01/05 23:46:07;;;;;;;11.05;5.55;;;4.40;99.90;;;;;;4930180;29;20121;-67
2021/01/05 23:48:37;;;;;;;12.25;5.88;;;4.40;99.90;;;;;;4926743;29;20044;-69
2021/01/05 23:51:06;;;;;;;10.23;5.57;;;4.40;99.90;;;;;;4919195;29;20083;-67
2021/01/05 23:53:34;;;;;;;11.05;5.53;;;4.30;99.90;;;;;;4931894;29;20059;-68
2021/01/05 23:56:01;;;;;;;10.25;5.22;;;4.30;99.90;;;;;;4920301;29;20095;-67
2021/01/05 23:58:28;;;;;;;11.55;6.15;;;4.30;99.90;;;;;;4924952;29;20052;-68
